Time;durP1;ratioP1;P1;durP2;ratioP2;P2;SDS_P1;SDS_P2;PMS_P1;PMS_P2;Temp;Humidity;BMP_temperature;BMP_pressure;BME280_temperature;BME280_humidity;BME280_pressure;Samples;Min_cycle;Max_cycle;Signal;HPM_P1;HPM_P2
2021/04/20 00:02:15;;;;;;;54.60;43.33;;;;;;;;;;4969244;28;20254;-43
2021/04/20 00:04:40;;;;;;;49.53;40.77;;;;;;;;;;4972515;28;20398;-41
2021/04/20 00:07:06;;;;;;;47.80;40.53;;;;;;;;;;4973115;28;20180;-42
2021/04/20 00:09:31;;;;;;;51.47;41.20;;;;;;;;;;4971989;28;20276;-43
2021/04/20 00:11:56;;;;;;;53.20;41.50;;;;;;;;;;4972963;28;20207;-42
2021/04/20 00:14:21;;;;;;;54.20;41.85;;;;;;;;;;4972619;28;20675;-42
2021/04/20 00:16:46;;;;;;;52.78;42.38;;;;;;;;;;4972493;28;20203;-42
2021/04/20 00:19:12;;;;;;;51.20;42.47;;;;;;;;;;4972327;28;20199;-41
2021/04/20 00:21:37;;;;;;;52.67;42.53;;;;;;;;;;4973005;28;20636;-42
2021/04/20 00:24:02;;;;;;;57.37;45.57;;;;;;;;;;4972577;28;20166;-42
2021/04/20 00:26:28;;;;;;;52.30;41.97;;;;;;;;;;4971981;28;20221;-42
2021/04/20 00:28:53;;;;;;;52.73;42.87;;;;;;;;;;4972371;28;20185;-42
2021/04/20 00:31:18;;;;;;;52.77;42.43;;;;;;;;;;4972657;28;20178;-42
2021/04/20 00:33:43;;;;;;;52.90;42.42;;;;;;;;;;4971980;28;20187;-42
2021/04/20 00:36:09;;;;;;;67.37;47.33;;;;;;;;;;4972622;28;20673;-41
2021/04/20 00:38:34;;;;;;;68.27;47.03;;;;;;;;;;4972599;28;20228;-42
2021/04/20 00:41:17;;;;;;;65.80;47.10;;;;;;;;;;4970027;28;20186;-42
2021/04/20 00:43:44;;;;;;;61.27;42.80;;;;;;;;;;4971112;28;20209;-42
2021/04/20 00:46:10;;;;;;;57.13;45.10;;;;;;;;;;4971761;28;21537;-42
2021/04/20 00:48:35;;;;;;;50.17;42.20;;;;;;;;;;4972767;28;20713;-43
2021/04/20 00:51:00;;;;;;;55.00;43.87;;;;;;;;;;4971816;28;20656;-43
2021/04/20 00:53:25;;;;;;;53.75;44.15;;;;;;;;;;4970470;28;20194;-43
2021/04/20 00:55:50;;;;;;;57.47;42.78;;;;;;;;;;4976268;28;20574;-42
2021/04/20 00:58:15;;;;;;;52.05;43.10;;;;;;;;;;4973806;28;20237;-43
2021/04/20 01:00:41;;;;;;;55.13;43.70;;;;;;;;;;4971259;28;20188;-41
2021/04/20 01:03:06;;;;;;;62.53;46.33;;;;;;;;;;4971892;28;20175;-41
2021/04/20 01:05:33;;;;;;;62.10;45.50;;;;;;;;;;4971711;28;20192;-41
2021/04/20 01:07:59;;;;;;;51.40;40.60;;;;;;;;;;4971394;28;20194;-42
2021/04/20 01:10:26;;;;;;;54.03;43.70;;;;;;;;;;4971289;28;20633;-43
2021/04/20 01:12:52;;;;;;;59.43;46.90;;;;;;;;;;4971743;28;21027;-43
2021/04/20 01:15:17;;;;;;;55.63;40.83;;;;;;;;;;4971599;28;20640;-41
2021/04/20 01:17:42;;;;;;;55.37;43.33;;;;;;;;;;4971202;28;20320;-42
2021/04/20 01:20:09;;;;;;;62.55;44.67;;;;;;;;;;4971574;28;20265;-42
2021/04/20 01:22:35;;;;;;;54.33;42.90;;;;;;;;;;4971313;28;20222;-42
2021/04/20 01:25:00;;;;;;;53.77;43.30;;;;;;;;;;4971068;28;20695;-42
2021/04/20 01:27:26;;;;;;;52.40;42.77;;;;;;;;;;4970836;28;20626;-43
2021/04/20 01:29:56;;;;;;;54.70;42.17;;;;;;;;;;4971300;28;20186;-43
2021/04/20 01:32:21;;;;;;;54.50;43.40;;;;;;;;;;4971670;28;20182;-43
2021/04/20 01:34:46;;;;;;;56.90;43.40;;;;;;;;;;4969716;28;20695;-43
2021/04/20 01:37:11;;;;;;;53.63;42.67;;;;;;;;;;4971383;28;20342;-43
2021/04/20 01:39:36;;;;;;;52.00;43.03;;;;;;;;;;4970348;28;20225;-43
2021/04/20 01:42:02;;;;;;;52.23;41.40;;;;;;;;;;4965519;28;20184;-43
2021/04/20 01:44:27;;;;;;;49.70;41.30;;;;;;;;;;4955969;28;20988;-43
2021/04/20 01:46:52;;;;;;;53.93;43.73;;;;;;;;;;4971248;28;20243;-43
2021/04/20 01:49:17;;;;;;;55.77;43.37;;;;;;;;;;4970317;28;20205;-43
2021/04/20 01:51:42;;;;;;;50.90;40.93;;;;;;;;;;4970607;28;20260;-43
2021/04/20 01:54:07;;;;;;;57.73;45.00;;;;;;;;;;4970571;28;20262;-43
2021/04/20 01:56:33;;;;;;;52.97;41.10;;;;;;;;;;4970610;28;20201;-43
2021/04/20 01:58:59;;;;;;;54.80;43.20;;;;;;;;;;4970515;28;20306;-42
2021/04/20 02:01:26;;;;;;;54.53;43.00;;;;;;;;;;4959831;28;20179;-42
2021/04/20 02:03:51;;;;;;;53.90;43.20;;;;;;;;;;4969633;28;21276;-43
2021/04/20 02:06:17;;;;;;;51.37;41.50;;;;;;;;;;4971283;28;20635;-43
2021/04/20 02:08:43;;;;;;;56.63;43.47;;;;;;;;;;4970370;28;20201;-42
2021/04/20 02:11:10;;;;;;;52.80;43.27;;;;;;;;;;4970356;28;20609;-42
2021/04/20 02:13:35;;;;;;;53.50;42.50;;;;;;;;;;4970095;28;20683;-42
2021/04/20 02:16:01;;;;;;;49.00;40.47;;;;;;;;;;4970294;28;21234;-41
2021/04/20 02:18:27;;;;;;;51.20;40.30;;;;;;;;;;4968860;28;20674;-43
2021/04/20 02:20:52;;;;;;;52.40;40.50;;;;;;;;;;4970398;28;20191;-42
2021/04/20 02:23:19;;;;;;;51.23;40.37;;;;;;;;;;4969547;28;20178;-42
2021/04/20 02:25:46;;;;;;;50.17;40.67;;;;;;;;;;4969202;28;20812;-43
2021/04/20 02:28:11;;;;;;;49.80;39.30;;;;;;;;;;4970187;28;21316;-42
2021/04/20 02:30:36;;;;;;;46.20;39.80;;;;;;;;;;4969782;28;20600;-42
2021/04/20 02:33:02;;;;;;;52.83;43.57;;;;;;;;;;4968737;28;20180;-42
2021/04/20 02:35:27;;;;;;;55.10;42.33;;;;;;;;;;4965789;28;20289;-42
2021/04/20 02:37:53;;;;;;;51.97;41.00;;;;;;;;;;4968613;28;20694;-41
2021/04/20 02:40:20;;;;;;;50.50;40.00;;;;;;;;;;4970043;28;20736;-42
2021/04/20 02:42:45;;;;;;;47.23;38.33;;;;;;;;;;4968712;28;20193;-42
2021/04/20 02:45:11;;;;;;;48.97;39.50;;;;;;;;;;4969521;28;20605;-42
2021/04/20 02:47:36;;;;;;;49.73;40.00;;;;;;;;;;4969876;28;20176;-43
2021/04/20 02:50:12;;;;;;;48.10;39.67;;;;;;;;;;4969429;28;20268;-42
2021/04/20 02:52:38;;;;;;;49.33;39.77;;;;;;;;;;4968685;28;20637;-43
2021/04/20 02:55:05;;;;;;;51.27;38.97;;;;;;;;;;4969131;28;20650;-42
2021/04/20 02:57:34;;;;;;;51.47;39.67;;;;;;;;;;4969328;28;20206;-42
2021/04/20 02:59:59;;;;;;;49.60;40.17;;;;;;;;;;4969713;28;20603;-42
2021/04/20 03:02:24;;;;;;;49.20;39.17;;;;;;;;;;4969551;28;20642;-43
2021/04/20 03:04:50;;;;;;;51.77;40.73;;;;;;;;;;4969683;28;20208;-43
2021/04/20 03:07:15;;;;;;;49.27;39.83;;;;;;;;;;4969359;28;20383;-43
2021/04/20 03:09:40;;;;;;;48.20;38.50;;;;;;;;;;4969200;28;20602;-43
2021/04/20 03:12:06;;;;;;;50.20;40.37;;;;;;;;;;4968654;28;20725;-43
2021/04/20 03:14:33;;;;;;;49.97;41.10;;;;;;;;;;4970030;28;20191;-43
2021/04/20 03:16:58;;;;;;;48.73;38.20;;;;;;;;;;4967782;28;20202;-43
2021/04/20 03:19:23;;;;;;;47.37;39.03;;;;;;;;;;4969502;28;21206;-43
2021/04/20 03:21:50;;;;;;;49.90;39.05;;;;;;;;;;4969436;28;20660;-43
2021/04/20 03:24:30;;;;;;;48.17;39.63;;;;;;;;;;4968681;28;20803;-43
2021/04/20 03:26:56;;;;;;;49.33;40.43;;;;;;;;;;4968472;28;20612;-41
2021/04/20 03:29:22;;;;;;;50.00;40.00;;;;;;;;;;4969987;28;20603;-43
2021/04/20 03:31:48;;;;;;;51.70;40.80;;;;;;;;;;4976286;28;20193;-43
2021/04/20 03:34:16;;;;;;;49.20;39.23;;;;;;;;;;4970184;28;20606;-43
2021/04/20 03:36:43;;;;;;;45.80;38.10;;;;;;;;;;4968329;28;20212;-43
2021/04/20 03:39:16;;;;;;;44.97;37.00;;;;;;;;;;4969101;28;20998;-42
2021/04/20 03:41:44;;;;;;;49.80;39.83;;;;;;;;;;4965738;28;20657;-43
2021/04/20 03:44:12;;;;;;;40.60;35.97;;;;;;;;;;4969503;28;20637;-40
2021/04/20 03:46:40;;;;;;;48.33;40.00;;;;;;;;;;4969586;28;20705;-43
2021/04/20 03:49:14;;;;;;;47.47;39.33;;;;;;;;;;4967994;28;20705;-42
2021/04/20 03:51:41;;;;;;;45.30;38.60;;;;;;;;;;4966591;28;20611;-41
2021/04/20 03:54:07;;;;;;;47.87;38.07;;;;;;;;;;4968788;28;20596;-42
2021/04/20 03:56:33;;;;;;;46.00;37.73;;;;;;;;;;4967772;28;21297;-43
2021/04/20 03:59:00;;;;;;;51.50;40.70;;;;;;;;;;4968062;28;20671;-43
2021/04/20 04:01:27;;;;;;;52.90;42.27;;;;;;;;;;4968969;28;20663;-43
2021/04/20 04:03:52;;;;;;;45.80;38.73;;;;;;;;;;4968015;28;20599;-43
2021/04/20 04:06:19;;;;;;;48.50;39.77;;;;;;;;;;4966720;28;20607;-43
2021/04/20 04:08:44;;;;;;;51.27;41.37;;;;;;;;;;4968364;28;20187;-43
2021/04/20 04:11:10;;;;;;;44.83;37.80;;;;;;;;;;4968680;28;20608;-43
2021/04/20 04:13:37;;;;;;;44.23;36.70;;;;;;;;;;4966863;28;20276;-43
2021/04/20 04:16:03;;;;;;;44.37;36.80;;;;;;;;;;4968376;28;20623;-43
2021/04/20 04:18:30;;;;;;;45.27;37.80;;;;;;;;;;4968322;28;20995;-42
2021/04/20 04:20:57;;;;;;;45.83;38.50;;;;;;;;;;4968973;28;21100;-43
2021/04/20 04:23:23;;;;;;;44.80;37.73;;;;;;;;;;4967685;28;20616;-43
2021/04/20 04:25:57;;;;;;;45.10;38.47;;;;;;;;;;4967869;28;20616;-43
2021/04/20 04:28:23;;;;;;;44.27;36.30;;;;;;;;;;4965107;28;20695;-43
2021/04/20 04:30:49;;;;;;;41.23;36.27;;;;;;;;;;4967921;28;20720;-43
2021/04/20 04:33:14;;;;;;;45.30;37.40;;;;;;;;;;4964357;28;20295;-44
2021/04/20 04:35:42;;;;;;;50.37;39.50;;;;;;;;;;4967357;28;20250;-43
2021/04/20 04:38:07;;;;;;;51.63;40.60;;;;;;;;;;4967232;28;20243;-43
2021/04/20 04:40:33;;;;;;;49.37;39.23;;;;;;;;;;4962536;28;20682;-43
2021/04/20 04:42:59;;;;;;;55.03;42.50;;;;;;;;;;4973800;28;20179;-43
2021/04/20 04:45:24;;;;;;;54.93;42.20;;;;;;;;;;4973567;28;20988;-43
2021/04/20 04:47:49;;;;;;;44.47;39.37;;;;;;;;;;4971790;28;20185;-42
2021/04/20 04:50:15;;;;;;;49.10;39.73;;;;;;;;;;4971301;28;20243;-42
2021/04/20 04:52:41;;;;;;;50.10;40.47;;;;;;;;;;4965202;28;20189;-42
2021/04/20 04:55:07;;;;;;;48.60;40.80;;;;;;;;;;4970547;28;20266;-42
2021/04/20 04:57:33;;;;;;;48.87;40.90;;;;;;;;;;4968868;28;20216;-42
2021/04/20 04:59:59;;;;;;;50.07;39.57;;;;;;;;;;4967945;28;20690;-43
2021/04/20 05:02:24;;;;;;;57.20;44.47;;;;;;;;;;4967935;28;20193;-42
2021/04/20 05:04:50;;;;;;;51.27;41.77;;;;;;;;;;4967625;28;20604;-43
2021/04/20 05:07:16;;;;;;;49.33;40.33;;;;;;;;;;4966553;28;20186;-42
2021/04/20 05:09:41;;;;;;;50.53;41.30;;;;;;;;;;4969882;28;20186;-42
2021/04/20 05:12:06;;;;;;;53.60;41.47;;;;;;;;;;4973046;28;20604;-42
2021/04/20 05:14:32;;;;;;;48.80;39.73;;;;;;;;;;4973642;28;20197;-42
2021/04/20 05:16:57;;;;;;;50.63;42.07;;;;;;;;;;4975894;28;20222;-42
2021/04/20 05:19:32;;;;;;;53.47;43.00;;;;;;;;;;4974613;28;20213;-42
2021/04/20 05:21:58;;;;;;;52.73;42.60;;;;;;;;;;4984311;28;20265;-41
2021/04/20 05:24:23;;;;;;;50.23;42.60;;;;;;;;;;4979462;28;21400;-41
2021/04/20 05:26:48;;;;;;;53.03;41.73;;;;;;;;;;4986396;28;20275;-41
2021/04/20 05:29:13;;;;;;;59.23;44.80;;;;;;;;;;4977281;28;20186;-41
2021/04/20 05:31:39;;;;;;;53.97;43.93;;;;;;;;;;4971072;28;20189;-41
2021/04/20 05:34:05;;;;;;;53.40;42.33;;;;;;;;;;4970996;28;20180;-41
2021/04/20 05:36:31;;;;;;;48.33;41.80;;;;;;;;;;4971227;28;20724;-41
2021/04/20 05:38:57;;;;;;;47.43;41.90;;;;;;;;;;4970457;28;20696;-41
2021/04/20 05:41:26;;;;;;;49.57;43.37;;;;;;;;;;4971471;28;20212;-42
2021/04/20 05:43:52;;;;;;;48.10;41.20;;;;;;;;;;4970975;28;20669;-42
2021/04/20 05:46:18;;;;;;;51.13;42.20;;;;;;;;;;4971205;28;20681;-42
2021/04/20 05:48:44;;;;;;;46.33;38.97;;;;;;;;;;4970508;28;20213;-42
2021/04/20 05:51:10;;;;;;;46.30;39.50;;;;;;;;;;4971190;28;20662;-41
2021/04/20 05:53:35;;;;;;;44.27;38.20;;;;;;;;;;4970929;28;20182;-42
2021/04/20 05:56:01;;;;;;;41.88;37.47;;;;;;;;;;4970697;28;20696;-42
2021/04/20 05:58:26;;;;;;;46.20;39.23;;;;;;;;;;4976512;28;20265;-42
2021/04/20 06:00:51;;;;;;;43.57;37.30;;;;;;;;;;4968160;28;20229;-42
2021/04/20 06:03:16;;;;;;;44.55;37.92;;;;;;;;;;4981437;28;20223;-41
2021/04/20 06:05:43;;;;;;;45.07;38.20;;;;;;;;;;4969315;28;20183;-42
2021/04/20 06:08:09;;;;;;;48.27;38.80;;;;;;;;;;4974126;28;20184;-41
2021/04/20 06:10:36;;;;;;;41.73;37.20;;;;;;;;;;4969037;28;20601;-41
2021/04/20 06:13:02;;;;;;;46.93;39.20;;;;;;;;;;4975817;28;20618;-42
2021/04/20 06:15:27;;;;;;;43.03;38.30;;;;;;;;;;4982502;28;20616;-43
2021/04/20 06:17:52;;;;;;;43.47;38.53;;;;;;;;;;4986255;28;20179;-43
2021/04/20 06:20:18;;;;;;;43.60;38.00;;;;;;;;;;4975656;28;20590;-42
2021/04/20 06:22:47;;;;;;;49.63;41.60;;;;;;;;;;4966488;28;20696;-42
2021/04/20 06:25:13;;;;;;;46.73;38.70;;;;;;;;;;4969130;28;20266;-42
2021/04/20 06:27:39;;;;;;;46.70;39.60;;;;;;;;;;4984676;28;20623;-42
2021/04/20 06:30:05;;;;;;;45.23;39.27;;;;;;;;;;4977547;28;20709;-42
2021/04/20 06:32:30;;;;;;;49.40;41.13;;;;;;;;;;4971740;28;20623;-42
2021/04/20 06:34:55;;;;;;;43.83;37.73;;;;;;;;;;4973116;28;20188;-42
2021/04/20 06:37:20;;;;;;;45.43;38.77;;;;;;;;;;4974285;28;20262;-42
2021/04/20 06:39:46;;;;;;;45.17;40.30;;;;;;;;;;4971098;28;20218;-42
2021/04/20 06:42:15;;;;;;;46.07;40.40;;;;;;;;;;4971321;28;20182;-42
2021/04/20 06:44:47;;;;;;;52.20;41.60;;;;;;;;;;4988392;28;20174;-42
2021/04/20 06:47:19;;;;;;;50.17;39.93;;;;;;;;;;4984544;28;20618;-42
2021/04/20 06:49:46;;;;;;;49.03;41.57;;;;;;;;;;4969939;28;20713;-47
2021/04/20 06:52:17;;;;;;;47.30;39.47;;;;;;;;;;4970267;28;20611;-42
2021/04/20 06:54:48;;;;;;;46.13;39.83;;;;;;;;;;4980128;28;21245;-43
2021/04/20 06:57:15;;;;;;;48.53;39.73;;;;;;;;;;4966877;28;21246;-42
2021/04/20 06:59:47;;;;;;;45.70;36.40;;;;;;;;;;4974423;28;20934;-42
2021/04/20 07:02:19;;;;;;;43.20;36.20;;;;;;;;;;4974623;28;21167;-43
2021/04/20 07:05:00;;;;;;;43.17;38.27;;;;;;;;;;4969639;28;21196;-42
2021/04/20 07:07:26;;;;;;;44.30;38.20;;;;;;;;;;4969707;28;20607;-42
2021/04/20 07:09:56;;;;;;;43.65;38.35;;;;;;;;;;4969049;28;20607;-43
2021/04/20 07:12:21;;;;;;;44.73;38.47;;;;;;;;;;4969447;28;20212;-43
2021/04/20 07:14:51;;;;;;;43.50;38.80;;;;;;;;;;4969490;28;20580;-43
2021/04/20 07:17:19;;;;;;;43.40;38.37;;;;;;;;;;4969255;28;20204;-43
2021/04/20 07:19:44;;;;;;;44.70;38.57;;;;;;;;;;4968784;28;20604;-42
2021/04/20 07:22:45;;;;;;;40.60;35.93;;;;;;;;;;4969455;28;20614;-43
2021/04/20 07:25:24;;;;;;;47.00;39.20;;;;;;;;;;4967005;28;20186;-42
2021/04/20 07:27:55;;;;;;;48.97;42.30;;;;;;;;;;4968840;28;20651;-43
2021/04/20 07:30:24;;;;;;;49.03;43.70;;;;;;;;;;4968552;28;20830;-42
2021/04/20 07:33:10;;;;;;;51.73;43.30;;;;;;;;;;4969366;28;20593;-43
2021/04/20 07:35:43;;;;;;;50.20;44.50;;;;;;;;;;4969450;28;20611;-43
2021/04/20 07:38:20;;;;;;;49.43;42.77;;;;;;;;;;4968807;28;21186;-43
2021/04/20 07:40:58;;;;;;;44.83;39.93;;;;;;;;;;4968992;28;20605;-43
2021/04/20 07:43:29;;;;;;;44.07;38.33;;;;;;;;;;4968328;28;20657;-43
2021/04/20 07:46:13;;;;;;;45.53;40.20;;;;;;;;;;4968581;28;21010;-43
2021/04/20 07:48:41;;;;;;;43.83;38.90;;;;;;;;;;4969167;28;20998;-42
2021/04/20 07:51:07;;;;;;;47.03;39.53;;;;;;;;;;4968940;28;20675;-43
2021/04/20 07:53:35;;;;;;;46.20;38.50;;;;;;;;;;4968896;28;20610;-43
2021/04/20 07:56:07;;;;;;;43.70;39.03;;;;;;;;;;4968823;28;20659;-43
2021/04/20 07:58:37;;;;;;;47.10;41.37;;;;;;;;;;4969590;28;20611;-43
2021/04/20 08:01:06;;;;;;;47.87;39.90;;;;;;;;;;4968641;28;20577;-43
2021/04/20 08:03:38;;;;;;;47.20;40.60;;;;;;;;;;4949816;28;20589;-42
2021/04/20 08:06:15;;;;;;;43.50;38.43;;;;;;;;;;4949729;28;20637;-42
2021/04/20 08:08:42;;;;;;;46.20;41.23;;;;;;;;;;4957584;28;20597;-42
2021/04/20 08:11:11;;;;;;;46.53;41.53;;;;;;;;;;4968663;28;20618;-42
2021/04/20 08:13:36;;;;;;;44.13;39.37;;;;;;;;;;4968607;28;20588;-42
2021/04/20 08:16:05;;;;;;;43.63;38.38;;;;;;;;;;4968886;28;20634;-42
2021/04/20 08:18:30;;;;;;;43.37;38.73;;;;;;;;;;4968858;28;20213;-43
2021/04/20 08:20:56;;;;;;;42.28;37.67;;;;;;;;;;4968422;28;20683;-43
2021/04/20 08:23:24;;;;;;;42.10;37.70;;;;;;;;;;4970785;28;20308;-43
2021/04/20 08:25:54;;;;;;;40.90;36.60;;;;;;;;;;4972938;28;20633;-43
2021/04/20 08:28:23;;;;;;;40.13;36.00;;;;;;;;;;4972470;28;20581;-42
2021/04/20 08:30:52;;;;;;;40.67;36.20;;;;;;;;;;4971811;28;20693;-41
2021/04/20 08:33:21;;;;;;;38.40;34.40;;;;;;;;;;4972252;28;20629;-42
2021/04/20 08:35:48;;;;;;;40.97;36.23;;;;;;;;;;4972355;28;20691;-41
2021/04/20 08:38:21;;;;;;;40.73;36.43;;;;;;;;;;4971568;28;20692;-41
2021/04/20 08:40:50;;;;;;;41.63;37.33;;;;;;;;;;4971867;28;20648;-41
2021/04/20 08:43:28;;;;;;;40.83;36.60;;;;;;;;;;4972024;28;20590;-41
2021/04/20 08:46:07;;;;;;;39.33;35.10;;;;;;;;;;4972621;28;20632;-42
2021/04/20 08:48:50;;;;;;;42.73;38.33;;;;;;;;;;4971896;28;20617;-42
2021/04/20 08:51:18;;;;;;;39.67;35.53;;;;;;;;;;4971822;28;21106;-42
2021/04/20 08:53:46;;;;;;;44.57;39.73;;;;;;;;;;4971482;28;20606;-42
2021/04/20 08:56:20;;;;;;;39.10;35.10;;;;;;;;;;4971977;28;20711;-42
2021/04/20 08:59:00;;;;;;;39.40;35.30;;;;;;;;;;4972100;28;20577;-43
2021/04/20 09:01:34;;;;;;;40.80;36.70;;;;;;;;;;4970733;28;21115;-42
2021/04/20 09:04:02;;;;;;;41.90;36.47;;;;;;;;;;4970767;28;21237;-42
2021/04/20 09:06:28;;;;;;;40.43;36.33;;;;;;;;;;4971699;28;21196;-42
2021/04/20 09:09:00;;;;;;;39.33;35.43;;;;;;;;;;4971688;28;20611;-43
2021/04/20 09:11:27;;;;;;;41.50;37.20;;;;;;;;;;4971476;28;20610;-42
2021/04/20 09:13:52;;;;;;;43.40;38.80;;;;;;;;;;4972007;28;20579;-42
2021/04/20 09:16:22;;;;;;;42.08;37.75;;;;;;;;;;4971241;28;20645;-42
2021/04/20 09:18:48;;;;;;;39.70;35.80;;;;;;;;;;4971833;28;20442;-42
2021/04/20 09:21:13;;;;;;;39.10;35.30;;;;;;;;;;4970944;28;20612;-42
2021/04/20 09:23:44;;;;;;;40.63;36.63;;;;;;;;;;4971440;28;20253;-43
2021/04/20 09:26:16;;;;;;;40.20;36.07;;;;;;;;;;4971346;28;20660;-42
2021/04/20 09:28:48;;;;;;;40.07;35.87;;;;;;;;;;4971093;28;20597;-43
2021/04/20 09:31:17;;;;;;;42.03;37.57;;;;;;;;;;4970895;28;20638;-43
2021/04/20 09:33:46;;;;;;;38.67;34.57;;;;;;;;;;4970016;28;21146;-43
2021/04/20 09:36:12;;;;;;;35.90;32.30;;;;;;;;;;4970685;28;20804;-42
2021/04/20 09:38:38;;;;;;;36.67;32.80;;;;;;;;;;4970526;28;20676;-43
2021/04/20 09:41:05;;;;;;;37.63;33.83;;;;;;;;;;4971088;28;20206;-41
2021/04/20 09:43:32;;;;;;;38.30;34.37;;;;;;;;;;4971172;28;20581;-42
2021/04/20 09:46:08;;;;;;;39.27;35.37;;;;;;;;;;4971261;28;20644;-41
2021/04/20 09:48:41;;;;;;;33.63;30.43;;;;;;;;;;4971035;28;20675;-41
2021/04/20 09:51:09;;;;;;;35.40;31.63;;;;;;;;;;4970873;28;20582;-42
2021/04/20 09:53:44;;;;;;;35.50;31.80;;;;;;;;;;4970836;28;20608;-42
2021/04/20 09:56:12;;;;;;;35.87;32.17;;;;;;;;;;4970678;28;20659;-42
2021/04/20 09:58:40;;;;;;;34.60;31.20;;;;;;;;;;4970991;28;20587;-42
2021/04/20 10:01:12;;;;;;;34.63;31.30;;;;;;;;;;4970393;28;20625;-41
2021/04/20 10:03:51;;;;;;;35.43;31.93;;;;;;;;;;4971088;28;20684;-43
2021/04/20 10:06:19;;;;;;;37.20;33.50;;;;;;;;;;4970203;28;21486;-42
2021/04/20 10:09:03;;;;;;;35.33;31.83;;;;;;;;;;4970264;28;20692;-42
2021/04/20 10:11:41;;;;;;;38.87;35.13;;;;;;;;;;4970157;28;20620;-42
2021/04/20 10:14:26;;;;;;;35.40;31.80;;;;;;;;;;4970651;28;20631;-42
2021/04/20 10:16:56;;;;;;;34.50;31.00;;;;;;;;;;4970316;28;20752;-42
2021/04/20 10:19:24;;;;;;;34.37;30.97;;;;;;;;;;4970139;28;20632;-42
2021/04/20 10:22:07;;;;;;;37.27;33.73;;;;;;;;;;4970707;28;20946;-42
2021/04/20 10:24:35;;;;;;;33.57;30.37;;;;;;;;;;4970278;28;20613;-43
2021/04/20 10:27:10;;;;;;;32.80;29.40;;;;;;;;;;4970273;28;20603;-42
2021/04/20 10:29:39;;;;;;;33.97;30.67;;;;;;;;;;4969644;28;20613;-42
2021/04/20 10:32:19;;;;;;;34.13;30.77;;;;;;;;;;4970329;28;20580;-42
2021/04/20 10:34:46;;;;;;;32.23;29.20;;;;;;;;;;4970258;28;20580;-42
2021/04/20 10:37:12;;;;;;;32.60;29.50;;;;;;;;;;4969921;28;20655;-42
2021/04/20 10:39:37;;;;;;;32.50;29.20;;;;;;;;;;4969492;28;20647;-42
2021/04/20 10:42:03;;;;;;;30.40;27.40;;;;;;;;;;4970289;28;20636;-42
2021/04/20 10:44:31;;;;;;;32.30;29.30;;;;;;;;;;4970011;28;20601;-42
2021/04/20 10:46:57;;;;;;;34.30;30.17;;;;;;;;;;4969745;28;20925;-42
2021/04/20 10:49:23;;;;;;;31.70;28.57;;;;;;;;;;4969616;28;20604;-42
2021/04/20 10:51:53;;;;;;;31.63;28.57;;;;;;;;;;4970188;28;20701;-42
2021/04/20 10:54:19;;;;;;;30.13;27.30;;;;;;;;;;4969815;28;20646;-42
2021/04/20 10:56:52;;;;;;;29.30;26.57;;;;;;;;;;4969753;28;20677;-41
2021/04/20 10:59:23;;;;;;;31.10;28.00;;;;;;;;;;4969686;28;20205;-42
2021/04/20 11:01:48;;;;;;;29.60;26.77;;;;;;;;;;4969852;28;20607;-42
2021/04/20 11:04:19;;;;;;;31.17;28.00;;;;;;;;;;4969576;28;20612;-40
2021/04/20 11:06:45;;;;;;;30.30;27.17;;;;;;;;;;4969169;28;20186;-42
2021/04/20 11:09:10;;;;;;;29.43;26.47;;;;;;;;;;4969333;28;20938;-41
2021/04/20 11:11:35;;;;;;;33.30;29.73;;;;;;;;;;4969589;28;20599;-41
2021/04/20 11:14:00;;;;;;;29.42;26.73;;;;;;;;;;4969796;28;20172;-42
2021/04/20 11:16:31;;;;;;;30.67;27.58;;;;;;;;;;4969217;28;20276;-42
2021/04/20 11:19:02;;;;;;;28.73;25.93;;;;;;;;;;4969030;28;20372;-42
2021/04/20 11:21:28;;;;;;;29.27;26.47;;;;;;;;;;4968944;28;21187;-42
2021/04/20 11:23:57;;;;;;;29.20;26.53;;;;;;;;;;4969109;28;20640;-42
2021/04/20 11:26:27;;;;;;;29.83;27.13;;;;;;;;;;4969263;28;20577;-42
2021/04/20 11:28:54;;;;;;;28.40;25.80;;;;;;;;;;4969086;28;20617;-42
2021/04/20 11:31:23;;;;;;;27.93;25.13;;;;;;;;;;4969315;28;20588;-42
2021/04/20 11:34:00;;;;;;;28.40;25.57;;;;;;;;;;4968913;28;20590;-42
2021/04/20 11:36:27;;;;;;;29.40;26.60;;;;;;;;;;4968855;28;20674;-42
2021/04/20 11:38:53;;;;;;;27.60;25.03;;;;;;;;;;4968771;28;20652;-43
2021/04/20 11:41:25;;;;;;;27.50;25.10;;;;;;;;;;4969059;28;20575;-43
2021/04/20 11:44:00;;;;;;;27.70;25.27;;;;;;;;;;4969361;28;20583;-43
2021/04/20 11:46:30;;;;;;;27.13;24.73;;;;;;;;;;4968725;28;20601;-43
2021/04/20 11:49:06;;;;;;;24.67;22.47;;;;;;;;;;4968716;28;21202;-41
2021/04/20 11:51:32;;;;;;;27.83;25.20;;;;;;;;;;4969022;28;21151;-42
2021/04/20 11:53:57;;;;;;;26.37;23.97;;;;;;;;;;4968662;28;20620;-42
2021/04/20 11:56:23;;;;;;;25.80;23.50;;;;;;;;;;4968307;28;20658;-42
2021/04/20 11:58:48;;;;;;;27.07;24.57;;;;;;;;;;4972070;28;20181;-42
2021/04/20 12:01:15;;;;;;;27.30;24.73;;;;;;;;;;4972615;28;20214;-42
2021/04/20 12:03:59;;;;;;;26.50;23.90;;;;;;;;;;4972828;28;20169;-42
2021/04/20 12:06:24;;;;;;;26.73;24.03;;;;;;;;;;4972285;28;20760;-42
2021/04/20 12:08:53;;;;;;;28.60;25.90;;;;;;;;;;4973181;28;20703;-42
2021/04/20 12:11:19;;;;;;;30.70;27.70;;;;;;;;;;4972772;28;20169;-42
2021/04/20 12:13:47;;;;;;;26.53;24.13;;;;;;;;;;4972796;28;20591;-42
2021/04/20 12:16:13;;;;;;;27.30;24.80;;;;;;;;;;4972799;28;20624;-41
2021/04/20 12:18:42;;;;;;;26.93;24.53;;;;;;;;;;4972521;28;20652;-42
2021/04/20 12:21:08;;;;;;;26.17;23.97;;;;;;;;;;4972856;28;20178;-42
2021/04/20 12:23:35;;;;;;;25.23;23.03;;;;;;;;;;4972268;28;20608;-43
2021/04/20 12:26:01;;;;;;;25.80;23.60;;;;;;;;;;4972414;28;21142;-42
2021/04/20 12:28:28;;;;;;;27.07;24.63;;;;;;;;;;4971939;28;20611;-42
2021/04/20 12:30:53;;;;;;;27.53;25.00;;;;;;;;;;4972438;28;20578;-42
2021/04/20 12:33:19;;;;;;;26.40;23.80;;;;;;;;;;4972545;28;20571;-42
2021/04/20 12:35:45;;;;;;;27.67;25.27;;;;;;;;;;4972227;28;20183;-42
2021/04/20 12:38:10;;;;;;;27.63;25.33;;;;;;;;;;4971907;28;20672;-42
2021/04/20 12:40:36;;;;;;;27.87;25.37;;;;;;;;;;4971758;28;20220;-43
2021/04/20 12:43:02;;;;;;;30.93;28.10;;;;;;;;;;4972334;28;20241;-43
2021/04/20 12:45:29;;;;;;;31.00;28.20;;;;;;;;;;4972055;28;20218;-42
2021/04/20 12:47:55;;;;;;;30.23;27.47;;;;;;;;;;4972445;28;20595;-42
2021/04/20 12:50:21;;;;;;;30.07;27.47;;;;;;;;;;4971746;28;21157;-43
2021/04/20 12:52:47;;;;;;;31.63;28.73;;;;;;;;;;4971619;28;20572;-42
2021/04/20 12:55:16;;;;;;;34.63;31.53;;;;;;;;;;4972093;28;20914;-42
2021/04/20 12:57:43;;;;;;;33.97;30.87;;;;;;;;;;4971748;28;20400;-42
2021/04/20 13:00:10;;;;;;;32.53;29.60;;;;;;;;;;4971608;28;20718;-42
2021/04/20 13:02:37;;;;;;;33.57;30.47;;;;;;;;;;4971864;28;21229;-43
2021/04/20 13:05:03;;;;;;;33.27;30.13;;;;;;;;;;4971803;28;21274;-42
2021/04/20 13:07:30;;;;;;;31.70;28.90;;;;;;;;;;4971393;28;20587;-42
2021/04/20 13:09:56;;;;;;;27.90;25.30;;;;;;;;;;4971359;28;20649;-42
2021/04/20 13:12:23;;;;;;;32.33;29.53;;;;;;;;;;4971605;28;20594;-43
2021/04/20 13:14:49;;;;;;;31.00;28.13;;;;;;;;;;4971862;28;20580;-43
2021/04/20 13:17:16;;;;;;;30.60;27.90;;;;;;;;;;4971731;28;21429;-43
2021/04/20 13:19:42;;;;;;;28.20;25.80;;;;;;;;;;4971107;28;20643;-43
2021/04/20 13:22:07;;;;;;;30.33;27.63;;;;;;;;;;4971021;28;20604;-43
2021/04/20 13:24:34;;;;;;;28.73;26.17;;;;;;;;;;4971274;28;20719;-42
2021/04/20 13:27:00;;;;;;;29.37;26.67;;;;;;;;;;4971613;28;20182;-42
2021/04/20 13:29:27;;;;;;;28.10;25.60;;;;;;;;;;4970973;28;20961;-42
2021/04/20 13:31:54;;;;;;;24.90;22.73;;;;;;;;;;4971312;28;20190;-41
2021/04/20 13:34:40;;;;;;;18.47;16.97;;;;;;;;;;4971402;28;20583;-42
2021/04/20 13:37:15;;;;;;;18.27;16.70;;;;;;;;;;4970824;28;21602;-42
2021/04/20 13:39:41;;;;;;;17.77;16.27;;;;;;;;;;4970055;28;20684;-42
2021/04/20 13:42:12;;;;;;;23.50;19.73;;;;;;;;;;4969338;28;20618;-43
2021/04/20 13:44:42;;;;;;;19.87;18.27;;;;;;;;;;4971081;28;21143;-43
2021/04/20 13:47:08;;;;;;;26.93;24.30;;;;;;;;;;4969805;28;20636;-42
2021/04/20 13:49:33;;;;;;;31.23;28.43;;;;;;;;;;4969488;28;20607;-42
2021/04/20 13:52:03;;;;;;;32.63;29.57;;;;;;;;;;4968563;28;20607;-42
2021/04/20 13:54:32;;;;;;;35.20;31.90;;;;;;;;;;4967654;28;20212;-42
2021/04/20 13:56:59;;;;;;;29.33;26.63;;;;;;;;;;4966372;28;21018;-43
2021/04/20 13:59:25;;;;;;;27.90;25.20;;;;;;;;;;4971707;28;21248;-43
2021/04/20 14:01:51;;;;;;;34.13;31.00;;;;;;;;;;4967930;28;20601;-43
2021/04/20 14:04:27;;;;;;;31.43;28.63;;;;;;;;;;4969763;28;20689;-43
2021/04/20 14:06:55;;;;;;;30.13;27.30;;;;;;;;;;4970005;28;20180;-42
2021/04/20 14:09:24;;;;;;;35.90;32.37;;;;;;;;;;4969309;28;20606;-43
2021/04/20 14:12:01;;;;;;;34.43;31.00;;;;;;;;;;4970444;28;20592;-44
2021/04/20 14:14:28;;;;;;;34.07;30.83;;;;;;;;;;4969140;28;20982;-43
2021/04/20 14:16:54;;;;;;;32.40;29.20;;;;;;;;;;4968515;28;20650;-43
2021/04/20 14:19:21;;;;;;;37.00;33.30;;;;;;;;;;4970183;28;20583;-43
2021/04/20 14:21:47;;;;;;;37.57;33.83;;;;;;;;;;4968965;28;20598;-43